Terminal Aerodrome Forecast
Issued by NWS Tampa Bay Area, FL

Home | Current Version | Previous Version | Text Only | Print | Product List | Glossary On
Versions: 1 2 3 4 5 6 7 8 9 10 11 12 13 14 15 16
534
FTUS42 KTBW 012342
TAFFMY
TAF
KFMY 012342Z 0200/0224 25008KT P6SM VCSH SCT050
     FM020200 14006KT P6SM VCTS FEW035CB SCT050
     FM020300 11005KT P6SM SCT040
     FM020500 11005KT P6SM SCT250
     FM021500 14009KT P6SM SCT040 SCT120
     FM021800 21008KT P6SM BKN050
     FM022000 24012KT P6SM VCTS BKN050CB=

USA.gov is the U.S. government's official web portal to all federal, state and local government web resources and services.